sensor_id;sensor_type;location;lat;lon;timestamp;temperature;humidity
17891;DHT22;9071;48.220;14.480;2022-07-29T00:03:14;19.10;99.90
17891;DHT22;9071;48.220;14.480;2022-07-29T00:08:16;19.10;99.90
17891;DHT22;9071;48.220;14.480;2022-07-29T00:13:18;19.10;99.90
17891;DHT22;9071;48.220;14.480;2022-07-29T00:18:21;19.10;99.90
17891;DHT22;9071;48.220;14.480;2022-07-29T00:23:23;19.00;99.90
17891;DHT22;9071;48.220;14.480;2022-07-29T00:28:26;19.00;99.90
17891;DHT22;9071;48.220;14.480;2022-07-29T00:33:29;18.90;99.90
17891;DHT22;9071;48.220;14.480;2022-07-29T00:38:32;18.90;99.90
17891;DHT22;9071;48.220;14.480;2022-07-29T00:43:34;18.70;99.90
17891;DHT22;9071;48.220;14.480;2022-07-29T00:48:38;18.60;99.90
17891;DHT22;9071;48.220;14.480;2022-07-29T00:53:40;18.50;99.90
17891;DHT22;9071;48.220;14.480;2022-07-29T00:58:43;18.40;99.90
17891;DHT22;9071;48.220;14.480;2022-07-29T01:03:48;18.20;99.90
17891;DHT22;9071;48.220;14.480;2022-07-29T01:08:50;18.20;99.90
17891;DHT22;9071;48.220;14.480;2022-07-29T01:13:53;18.10;99.90
17891;DHT22;9071;48.220;14.480;2022-07-29T01:19:03;18.10;99.90
17891;DHT22;9071;48.220;14.480;2022-07-29T01:24:34;18.10;99.90
17891;DHT22;9071;48.220;14.480;2022-07-29T01:29:46;18.10;99.90
17891;DHT22;9071;48.220;14.480;2022-07-29T01:34:54;18.10;99.90
17891;DHT22;9071;48.220;14.480;2022-07-29T01:39:59;18.10;99.90
17891;DHT22;9071;48.220;14.480;2022-07-29T01:45:08;18.10;99.90
17891;DHT22;9071;48.220;14.480;2022-07-29T01:50:16;18.10;99.90
17891;DHT22;9071;48.220;14.480;2022-07-29T01:55:20;18.20;99.90
17891;DHT22;9071;48.220;14.480;2022-07-29T02:00:26;18.20;99.90
17891;DHT22;9071;48.220;14.480;2022-07-29T02:05:30;18.30;99.90
17891;DHT22;9071;48.220;14.480;2022-07-29T02:10:34;18.40;99.90
17891;DHT22;9071;48.220;14.480;2022-07-29T02:15:41;18.40;99.90
17891;DHT22;9071;48.220;14.480;2022-07-29T02:20:47;18.60;99.90
17891;DHT22;9071;48.220;14.480;2022-07-29T02:25:50;18.50;99.90
17891;DHT22;9071;48.220;14.480;2022-07-29T02:30:56;18.60;99.90
17891;DHT22;9071;48.220;14.480;2022-07-29T02:36:00;18.50;99.90
17891;DHT22;9071;48.220;14.480;2022-07-29T02:41:08;18.50;99.90
17891;DHT22;9071;48.220;14.480;2022-07-29T02:46:18;18.40;99.90
17891;DHT22;9071;48.220;14.480;2022-07-29T02:51:33;18.40;99.90
17891;DHT22;9071;48.220;14.480;2022-07-29T02:56:37;18.30;99.90
17891;DHT22;9071;48.220;14.480;2022-07-29T03:01:43;18.30;99.90
17891;DHT22;9071;48.220;14.480;2022-07-29T03:06:46;18.50;99.90
17891;DHT22;9071;48.220;14.480;2022-07-29T03:11:49;18.50;99.90
17891;DHT22;9071;48.220;14.480;2022-07-29T03:16:53;18.40;99.90
17891;DHT22;9071;48.220;14.480;2022-07-29T03:21:56;18.30;99.90
17891;DHT22;9071;48.220;14.480;2022-07-29T03:26:59;18.30;99.90
17891;DHT22;9071;48.220;14.480;2022-07-29T03:32:04;18.30;99.90
17891;DHT22;9071;48.220;14.480;2022-07-29T03:37:06;18.30;99.90
17891;DHT22;9071;48.220;14.480;2022-07-29T03:42:11;18.30;99.90
17891;DHT22;9071;48.220;14.480;2022-07-29T03:47:18;18.30;99.90
17891;DHT22;9071;48.220;14.480;2022-07-29T03:52:22;18.30;99.90
17891;DHT22;9071;48.220;14.480;2022-07-29T03:57:27;18.30;99.90
17891;DHT22;9071;48.220;14.480;2022-07-29T04:02:31;18.40;99.90
17891;DHT22;9071;48.220;14.480;2022-07-29T04:07:34;18.50;99.90
17891;DHT22;9071;48.220;14.480;2022-07-29T04:12:36;18.60;99.90
17891;DHT22;9071;48.220;14.480;2022-07-29T04:17:39;18.60;99.90
17891;DHT22;9071;48.220;14.480;2022-07-29T04:22:41;18.70;99.90
17891;DHT22;9071;48.220;14.480;2022-07-29T04:27:43;18.70;99.90
17891;DHT22;9071;48.220;14.480;2022-07-29T04:33:02;18.70;99.90
17891;DHT22;9071;48.220;14.480;2022-07-29T04:38:05;18.80;99.90
17891;DHT22;9071;48.220;14.480;2022-07-29T04:43:07;19.10;99.90
17891;DHT22;9071;48.220;14.480;2022-07-29T04:48:11;19.40;99.90
17891;DHT22;9071;48.220;14.480;2022-07-29T04:53:13;19.50;99.90
17891;DHT22;9071;48.220;14.480;2022-07-29T04:58:15;19.60;99.90
17891;DHT22;9071;48.220;14.480;2022-07-29T05:03:19;19.60;99.90
17891;DHT22;9071;48.220;14.480;2022-07-29T05:08:21;19.50;99.90
17891;DHT22;9071;48.220;14.480;2022-07-29T05:13:23;19.60;99.90
17891;DHT22;9071;48.220;14.480;2022-07-29T05:18:26;19.60;99.90
17891;DHT22;9071;48.220;14.480;2022-07-29T05:23:29;19.60;99.90
17891;DHT22;9071;48.220;14.480;2022-07-29T05:28:33;19.60;99.90
17891;DHT22;9071;48.220;14.480;2022-07-29T05:33:36;19.60;99.90
17891;DHT22;9071;48.220;14.480;2022-07-29T05:38:39;19.60;99.90
17891;DHT22;9071;48.220;14.480;2022-07-29T05:43:41;19.60;99.90
17891;DHT22;9071;48.220;14.480;2022-07-29T05:48:44;19.60;99.90
17891;DHT22;9071;48.220;14.480;2022-07-29T05:53:46;19.60;99.90
17891;DHT22;9071;48.220;14.480;2022-07-29T05:58:48;19.50;99.90
17891;DHT22;9071;48.220;14.480;2022-07-29T06:03:52;19.60;99.90
17891;DHT22;9071;48.220;14.480;2022-07-29T06:08:54;19.60;99.90
17891;DHT22;9071;48.220;14.480;2022-07-29T06:13:56;19.60;99.90
17891;DHT22;9071;48.220;14.480;2022-07-29T06:19:00;19.70;99.90
17891;DHT22;9071;48.220;14.480;2022-07-29T06:24:02;19.70;99.90
17891;DHT22;9071;48.220;14.480;2022-07-29T06:29:04;19.80;99.90
17891;DHT22;9071;48.220;14.480;2022-07-29T06:34:08;19.90;99.90
17891;DHT22;9071;48.220;14.480;2022-07-29T06:39:10;20.10;99.90
17891;DHT22;9071;48.220;14.480;2022-07-29T06:44:12;20.20;99.90
17891;DHT22;9071;48.220;14.480;2022-07-29T06:49:15;20.30;99.90
17891;DHT22;9071;48.220;14.480;2022-07-29T06:54:17;20.50;99.90
17891;DHT22;9071;48.220;14.480;2022-07-29T06:59:20;20.50;99.90
17891;DHT22;9071;48.220;14.480;2022-07-29T07:04:23;20.70;99.90
17891;DHT22;9071;48.220;14.480;2022-07-29T07:09:25;21.00;99.90
17891;DHT22;9071;48.220;14.480;2022-07-29T07:14:27;21.10;99.90
17891;DHT22;9071;48.220;14.480;2022-07-29T07:19:31;21.40;99.90
17891;DHT22;9071;48.220;14.480;2022-07-29T07:24:33;21.70;99.90
17891;DHT22;9071;48.220;14.480;2022-07-29T07:29:35;21.90;99.90
17891;DHT22;9071;48.220;14.480;2022-07-29T07:34:38;22.20;99.90
17891;DHT22;9071;48.220;14.480;2022-07-29T07:39:40;22.30;99.90
17891;DHT22;9071;48.220;14.480;2022-07-29T07:44:42;22.50;99.90
17891;DHT22;9071;48.220;14.480;2022-07-29T07:49:48;22.60;99.90
17891;DHT22;9071;48.220;14.480;2022-07-29T07:54:50;22.70;99.90
17891;DHT22;9071;48.220;14.480;2022-07-29T07:59:52;22.90;99.90
17891;DHT22;9071;48.220;14.480;2022-07-29T08:04:55;23.10;99.90
17891;DHT22;9071;48.220;14.480;2022-07-29T08:09:57;23.50;99.90
17891;DHT22;9071;48.220;14.480;2022-07-29T08:15:00;23.50;99.90
17891;DHT22;9071;48.220;14.480;2022-07-29T08:20:04;23.70;99.90
17891;DHT22;9071;48.220;14.480;2022-07-29T08:25:07;23.80;99.90
17891;DHT22;9071;48.220;14.480;2022-07-29T08:30:09;23.90;99.90
17891;DHT22;9071;48.220;14.480;2022-07-29T08:35:13;23.80;99.90
17891;DHT22;9071;48.220;14.480;2022-07-29T08:40:15;24.00;99.90
17891;DHT22;9071;48.220;14.480;2022-07-29T08:45:17;24.40;99.90
17891;DHT22;9071;48.220;14.480;2022-07-29T08:50:21;25.00;99.90
17891;DHT22;9071;48.220;14.480;2022-07-29T08:55:23;25.30;99.90
17891;DHT22;9071;48.220;14.480;2022-07-29T09:00:25;25.30;99.90
17891;DHT22;9071;48.220;14.480;2022-07-29T09:05:29;25.60;99.90
17891;DHT22;9071;48.220;14.480;2022-07-29T09:10:35;25.40;99.90
17891;DHT22;9071;48.220;14.480;2022-07-29T09:15:37;25.30;99.90
17891;DHT22;9071;48.220;14.480;2022-07-29T09:20:52;25.20;99.90
17891;DHT22;9071;48.220;14.480;2022-07-29T09:26:11;25.10;99.90
17891;DHT22;9071;48.220;14.480;2022-07-29T09:31:13;25.50;99.90
17891;DHT22;9071;48.220;14.480;2022-07-29T09:36:17;25.90;99.90
17891;DHT22;9071;48.220;14.480;2022-07-29T09:41:19;26.40;99.90
17891;DHT22;9071;48.220;14.480;2022-07-29T09:46:21;26.70;99.90
17891;DHT22;9071;48.220;14.480;2022-07-29T09:51:24;26.80;99.90
17891;DHT22;9071;48.220;14.480;2022-07-29T09:56:38;26.70;99.90
17891;DHT22;9071;48.220;14.480;2022-07-29T10:01:41;26.60;99.90
17891;DHT22;9071;48.220;14.480;2022-07-29T10:06:57;26.30;99.90
17891;DHT22;9071;48.220;14.480;2022-07-29T10:12:07;26.20;99.90
17891;DHT22;9071;48.220;14.480;2022-07-29T10:17:11;26.70;99.90
17891;DHT22;9071;48.220;14.480;2022-07-29T10:22:15;26.60;99.90
17891;DHT22;9071;48.220;14.480;2022-07-29T10:27:17;27.20;99.90
17891;DHT22;9071;48.220;14.480;2022-07-29T10:32:29;27.40;99.90
17891;DHT22;9071;48.220;14.480;2022-07-29T10:37:52;27.20;99.90
17891;DHT22;9071;48.220;14.480;2022-07-29T10:43:04;27.30;99.90
17891;DHT22;9071;48.220;14.480;2022-07-29T10:48:09;27.80;99.90
17891;DHT22;9071;48.220;14.480;2022-07-29T10:53:13;28.30;99.90
17891;DHT22;9071;48.220;14.480;2022-07-29T10:58:25;28.00;99.90
17891;DHT22;9071;48.220;14.480;2022-07-29T11:03:44;27.80;99.90
17891;DHT22;9071;48.220;14.480;2022-07-29T11:09:16;28.00;99.90
17891;DHT22;9071;48.220;14.480;2022-07-29T11:14:55;28.10;99.90
17891;DHT22;9071;48.220;14.480;2022-07-29T11:20:30;28.20;99.90
17891;DHT22;9071;48.220;14.480;2022-07-29T11:25:33;28.50;99.90
17891;DHT22;9071;48.220;14.480;2022-07-29T11:30:49;28.80;99.90
17891;DHT22;9071;48.220;14.480;2022-07-29T11:36:07;28.70;99.90
17891;DHT22;9071;48.220;14.480;2022-07-29T11:41:26;29.00;99.90
17891;DHT22;9071;48.220;14.480;2022-07-29T11:46:52;28.90;99.90
17891;DHT22;9071;48.220;14.480;2022-07-29T11:51:56;28.40;99.90
17891;DHT22;9071;48.220;14.480;2022-07-29T11:57:01;28.00;99.90
17891;DHT22;9071;48.220;14.480;2022-07-29T12:02:05;28.20;99.90
17891;DHT22;9071;48.220;14.480;2022-07-29T12:07:07;28.20;99.90
17891;DHT22;9071;48.220;14.480;2022-07-29T12:12:09;28.30;99.90
17891;DHT22;9071;48.220;14.480;2022-07-29T12:17:26;28.60;99.90
17891;DHT22;9071;48.220;14.480;2022-07-29T12:22:29;28.20;99.90
17891;DHT22;9071;48.220;14.480;2022-07-29T12:27:32;28.40;99.90
17891;DHT22;9071;48.220;14.480;2022-07-29T12:32:37;29.00;99.90
17891;DHT22;9071;48.220;14.480;2022-07-29T12:37:41;29.70;99.90
17891;DHT22;9071;48.220;14.480;2022-07-29T12:43:08;29.40;99.90
17891;DHT22;9071;48.220;14.480;2022-07-29T12:48:12;29.00;99.90
17891;DHT22;9071;48.220;14.480;2022-07-29T12:53:14;29.40;99.90
17891;DHT22;9071;48.220;14.480;2022-07-29T12:58:27;29.00;99.90
17891;DHT22;9071;48.220;14.480;2022-07-29T13:03:45;29.20;99.90
17891;DHT22;9071;48.220;14.480;2022-07-29T13:08:59;29.20;99.90
17891;DHT22;9071;48.220;14.480;2022-07-29T13:14:01;29.00;99.90
17891;DHT22;9071;48.220;14.480;2022-07-29T13:19:09;29.00;99.90
17891;DHT22;9071;48.220;14.480;2022-07-29T13:24:11;29.00;99.90
17891;DHT22;9071;48.220;14.480;2022-07-29T13:29:13;29.30;99.90
17891;DHT22;9071;48.220;14.480;2022-07-29T13:34:17;29.00;99.90
17891;DHT22;9071;48.220;14.480;2022-07-29T13:39:20;29.10;99.90
17891;DHT22;9071;48.220;14.480;2022-07-29T13:44:22;29.40;99.90
17891;DHT22;9071;48.220;14.480;2022-07-29T13:49:26;29.60;99.90
17891;DHT22;9071;48.220;14.480;2022-07-29T13:54:28;29.80;99.90
17891;DHT22;9071;48.220;14.480;2022-07-29T13:59:30;29.80;99.90
17891;DHT22;9071;48.220;14.480;2022-07-29T14:04:34;29.90;99.90
17891;DHT22;9071;48.220;14.480;2022-07-29T14:09:36;29.70;99.90
17891;DHT22;9071;48.220;14.480;2022-07-29T14:14:38;29.90;99.90
17891;DHT22;9071;48.220;14.480;2022-07-29T14:19:41;29.80;99.90
17891;DHT22;9071;48.220;14.480;2022-07-29T14:24:43;29.40;99.90
17891;DHT22;9071;48.220;14.480;2022-07-29T14:29:46;29.70;99.90
17891;DHT22;9071;48.220;14.480;2022-07-29T14:34:49;29.90;99.90
17891;DHT22;9071;48.220;14.480;2022-07-29T14:39:51;29.80;99.90
17891;DHT22;9071;48.220;14.480;2022-07-29T14:44:54;29.80;99.90
17891;DHT22;9071;48.220;14.480;2022-07-29T14:49:58;29.70;99.90
17891;DHT22;9071;48.220;14.480;2022-07-29T14:55:00;29.60;99.90
17891;DHT22;9071;48.220;14.480;2022-07-29T15:00:03;29.40;99.90
17891;DHT22;9071;48.220;14.480;2022-07-29T15:05:08;29.40;99.90
17891;DHT22;9071;48.220;14.480;2022-07-29T15:10:10;29.10;99.90
17891;DHT22;9071;48.220;14.480;2022-07-29T15:15:12;29.20;99.90
17891;DHT22;9071;48.220;14.480;2022-07-29T15:20:16;29.20;99.90
17891;DHT22;9071;48.220;14.480;2022-07-29T15:25:18;29.20;99.90
17891;DHT22;9071;48.220;14.480;2022-07-29T15:30:20;29.20;99.90
17891;DHT22;9071;48.220;14.480;2022-07-29T15:35:23;29.30;99.90
17891;DHT22;9071;48.220;14.480;2022-07-29T15:40:25;29.10;99.90
17891;DHT22;9071;48.220;14.480;2022-07-29T15:45:27;29.20;99.90
17891;DHT22;9071;48.220;14.480;2022-07-29T15:50:31;29.10;99.90
17891;DHT22;9071;48.220;14.480;2022-07-29T15:55:33;28.90;99.90
17891;DHT22;9071;48.220;14.480;2022-07-29T16:00:35;28.70;99.90
17891;DHT22;9071;48.220;14.480;2022-07-29T16:05:38;28.70;99.90
17891;DHT22;9071;48.220;14.480;2022-07-29T16:10:40;28.60;99.90
17891;DHT22;9071;48.220;14.480;2022-07-29T16:15:43;28.60;99.90
17891;DHT22;9071;48.220;14.480;2022-07-29T16:20:47;28.60;99.90
17891;DHT22;9071;48.220;14.480;2022-07-29T16:25:49;28.60;99.90
17891;DHT22;9071;48.220;14.480;2022-07-29T16:30:51;28.60;99.90
17891;DHT22;9071;48.220;14.480;2022-07-29T16:35:55;28.50;99.90
17891;DHT22;9071;48.220;14.480;2022-07-29T16:40:57;28.50;99.90
17891;DHT22;9071;48.220;14.480;2022-07-29T16:45:59;28.40;99.90
17891;DHT22;9071;48.220;14.480;2022-07-29T16:51:03;28.30;99.90
17891;DHT22;9071;48.220;14.480;2022-07-29T16:56:05;28.30;99.90
17891;DHT22;9071;48.220;14.480;2022-07-29T17:01:07;28.10;99.90
17891;DHT22;9071;48.220;14.480;2022-07-29T17:06:10;27.80;99.90
17891;DHT22;9071;48.220;14.480;2022-07-29T17:11:12;27.70;99.90
17891;DHT22;9071;48.220;14.480;2022-07-29T17:16:14;27.60;99.90
17891;DHT22;9071;48.220;14.480;2022-07-29T17:21:21;27.50;99.90
17891;DHT22;9071;48.220;14.480;2022-07-29T17:26:23;27.40;99.90
17891;DHT22;9071;48.220;14.480;2022-07-29T17:31:26;27.20;99.90
17891;DHT22;9071;48.220;14.480;2022-07-29T17:36:30;27.00;99.90
17891;DHT22;9071;48.220;14.480;2022-07-29T17:41:32;26.80;99.90
17891;DHT22;9071;48.220;14.480;2022-07-29T17:46:34;26.60;99.90
17891;DHT22;9071;48.220;14.480;2022-07-29T17:51:38;26.40;99.90
17891;DHT22;9071;48.220;14.480;2022-07-29T17:56:40;26.30;99.90
17891;DHT22;9071;48.220;14.480;2022-07-29T18:01:42;26.00;99.90
17891;DHT22;9071;48.220;14.480;2022-07-29T18:06:45;25.80;99.90
17891;DHT22;9071;48.220;14.480;2022-07-29T18:11:47;25.50;99.90
17891;DHT22;9071;48.220;14.480;2022-07-29T18:16:49;25.30;99.90
17891;DHT22;9071;48.220;14.480;2022-07-29T18:21:53;25.10;99.90
17891;DHT22;9071;48.220;14.480;2022-07-29T18:26:55;24.80;99.90
17891;DHT22;9071;48.220;14.480;2022-07-29T18:31:57;24.70;99.90
17891;DHT22;9071;48.220;14.480;2022-07-29T18:37:02;24.60;99.90
17891;DHT22;9071;48.220;14.480;2022-07-29T18:42:04;24.40;99.90
17891;DHT22;9071;48.220;14.480;2022-07-29T18:47:07;24.10;99.90
17891;DHT22;9071;48.220;14.480;2022-07-29T18:52:10;23.70;99.90
17891;DHT22;9071;48.220;14.480;2022-07-29T18:57:13;23.60;99.90
17891;DHT22;9071;48.220;14.480;2022-07-29T19:02:15;23.60;99.90
17891;DHT22;9071;48.220;14.480;2022-07-29T19:07:18;23.50;99.90
17891;DHT22;9071;48.220;14.480;2022-07-29T19:12:25;23.30;99.90
17891;DHT22;9071;48.220;14.480;2022-07-29T19:17:27;23.00;99.90
17891;DHT22;9071;48.220;14.480;2022-07-29T19:22:30;23.10;99.90
17891;DHT22;9071;48.220;14.480;2022-07-29T19:27:33;23.00;99.90
17891;DHT22;9071;48.220;14.480;2022-07-29T19:32:35;23.00;99.90
17891;DHT22;9071;48.220;14.480;2022-07-29T19:37:39;23.00;99.90
17891;DHT22;9071;48.220;14.480;2022-07-29T19:42:41;23.10;99.90
17891;DHT22;9071;48.220;14.480;2022-07-29T19:47:43;23.30;99.90
17891;DHT22;9071;48.220;14.480;2022-07-29T19:52:46;23.30;99.90
17891;DHT22;9071;48.220;14.480;2022-07-29T19:57:49;23.40;99.90
17891;DHT22;9071;48.220;14.480;2022-07-29T20:02:52;23.30;99.90
17891;DHT22;9071;48.220;14.480;2022-07-29T20:07:57;23.30;99.90
17891;DHT22;9071;48.220;14.480;2022-07-29T20:12:59;23.10;99.90
17891;DHT22;9071;48.220;14.480;2022-07-29T20:18:01;23.10;99.90
17891;DHT22;9071;48.220;14.480;2022-07-29T20:23:05;23.10;99.90
17891;DHT22;9071;48.220;14.480;2022-07-29T20:28:07;23.10;99.90
17891;DHT22;9071;48.220;14.480;2022-07-29T20:33:09;22.90;99.90
17891;DHT22;9071;48.220;14.480;2022-07-29T20:38:12;22.80;99.90
17891;DHT22;9071;48.220;14.480;2022-07-29T20:43:14;22.90;99.90
17891;DHT22;9071;48.220;14.480;2022-07-29T20:48:17;23.10;99.90
17891;DHT22;9071;48.220;14.480;2022-07-29T20:53:20;23.20;99.90
17891;DHT22;9071;48.220;14.480;2022-07-29T20:58:23;22.70;99.90
17891;DHT22;9071;48.220;14.480;2022-07-29T21:03:25;21.90;99.90
17891;DHT22;9071;48.220;14.480;2022-07-29T21:08:28;20.80;99.90
17891;DHT22;9071;48.220;14.480;2022-07-29T21:13:30;19.70;99.90
17891;DHT22;9071;48.220;14.480;2022-07-29T21:18:39;19.10;99.90
17891;DHT22;9071;48.220;14.480;2022-07-29T21:23:44;18.90;99.90
17891;DHT22;9071;48.220;14.480;2022-07-29T21:28:46;18.70;99.90
17891;DHT22;9071;48.220;14.480;2022-07-29T21:33:49;18.60;99.90
17891;DHT22;9071;48.220;14.480;2022-07-29T21:38:52;18.50;99.90
17891;DHT22;9071;48.220;14.480;2022-07-29T21:43:54;18.50;99.90
17891;DHT22;9071;48.220;14.480;2022-07-29T21:48:56;18.60;99.90
17891;DHT22;9071;48.220;14.480;2022-07-29T21:53:59;18.60;99.90
17891;DHT22;9071;48.220;14.480;2022-07-29T21:59:02;18.60;99.90
17891;DHT22;9071;48.220;14.480;2022-07-29T22:04:04;18.60;99.90
17891;DHT22;9071;48.220;14.480;2022-07-29T22:09:07;18.60;99.90
17891;DHT22;9071;48.220;14.480;2022-07-29T22:14:09;18.50;99.90
17891;DHT22;9071;48.220;14.480;2022-07-29T22:19:12;18.50;99.90
17891;DHT22;9071;48.220;14.480;2022-07-29T22:24:16;18.50;99.90
17891;DHT22;9071;48.220;14.480;2022-07-29T22:29:18;18.50;99.90
17891;DHT22;9071;48.220;14.480;2022-07-29T22:34:20;18.40;99.90
17891;DHT22;9071;48.220;14.480;2022-07-29T22:39:23;18.40;99.90
17891;DHT22;9071;48.220;14.480;2022-07-29T22:44:26;18.50;99.90
17891;DHT22;9071;48.220;14.480;2022-07-29T22:49:28;18.40;99.90
17891;DHT22;9071;48.220;14.480;2022-07-29T22:54:32;18.40;99.90
17891;DHT22;9071;48.220;14.480;2022-07-29T22:59:34;18.40;99.90
17891;DHT22;9071;48.220;14.480;2022-07-29T23:04:37;18.40;99.90
17891;DHT22;9071;48.220;14.480;2022-07-29T23:09:40;18.40;99.90
17891;DHT22;9071;48.220;14.480;2022-07-29T23:14:42;18.40;99.90
17891;DHT22;9071;48.220;14.480;2022-07-29T23:19:45;18.40;99.90
17891;DHT22;9071;48.220;14.480;2022-07-29T23:24:49;18.30;99.90
17891;DHT22;9071;48.220;14.480;2022-07-29T23:29:51;18.30;99.90
17891;DHT22;9071;48.220;14.480;2022-07-29T23:34:53;18.30;99.90
17891;DHT22;9071;48.220;14.480;2022-07-29T23:39:57;18.20;99.90
17891;DHT22;9071;48.220;14.480;2022-07-29T23:44:59;18.20;99.90
17891;DHT22;9071;48.220;14.480;2022-07-29T23:50:01;18.20;99.90
17891;DHT22;9071;48.220;14.480;2022-07-29T23:55:05;18.10;99.90
